sensor_id;sensor_type;location;lat;lon;timestamp;temperature;humidity
42841;DHT22;28491;46.898;7.660;2023-09-12T00:02:18;18.60;99.90
42841;DHT22;28491;46.898;7.660;2023-09-12T00:04:43;18.60;99.90
42841;DHT22;28491;46.898;7.660;2023-09-12T00:07:09;18.80;99.90
42841;DHT22;28491;46.898;7.660;2023-09-12T00:09:34;18.90;99.90
42841;DHT22;28491;46.898;7.660;2023-09-12T00:12:00;18.90;99.60
42841;DHT22;28491;46.898;7.660;2023-09-12T00:14:25;18.80;99.40
42841;DHT22;28491;46.898;7.660;2023-09-12T00:16:51;18.70;99.90
42841;DHT22;28491;46.898;7.660;2023-09-12T00:19:18;18.70;99.90
42841;DHT22;28491;46.898;7.660;2023-09-12T00:21:43;18.70;99.90
42841;DHT22;28491;46.898;7.660;2023-09-12T00:24:09;18.80;99.90
42841;DHT22;28491;46.898;7.660;2023-09-12T00:26:34;18.90;99.90
42841;DHT22;28491;46.898;7.660;2023-09-12T00:29:00;18.80;99.30
42841;DHT22;28491;46.898;7.660;2023-09-12T00:31:25;18.70;99.90
42841;DHT22;28491;46.898;7.660;2023-09-12T00:33:51;18.60;99.90
42841;DHT22;28491;46.898;7.660;2023-09-12T00:36:16;18.60;99.90
42841;DHT22;28491;46.898;7.660;2023-09-12T00:38:42;18.60;99.90
42841;DHT22;28491;46.898;7.660;2023-09-12T00:41:07;18.60;99.90
42841;DHT22;28491;46.898;7.660;2023-09-12T00:43:33;18.60;99.90
42841;DHT22;28491;46.898;7.660;2023-09-12T00:45:58;18.60;99.90
42841;DHT22;28491;46.898;7.660;2023-09-12T00:48:24;18.70;98.90
42841;DHT22;28491;46.898;7.660;2023-09-12T00:50:51;18.70;99.90
42841;DHT22;28491;46.898;7.660;2023-09-12T00:53:18;18.70;98.40
42841;DHT22;28491;46.898;7.660;2023-09-12T00:55:51;18.70;98.70
42841;DHT22;28491;46.898;7.660;2023-09-12T00:58:19;18.50;98.50
42841;DHT22;28491;46.898;7.660;2023-09-12T01:00:45;18.50;99.90
42841;DHT22;28491;46.898;7.660;2023-09-12T01:03:11;18.50;99.90
42841;DHT22;28491;46.898;7.660;2023-09-12T01:05:37;18.50;99.90
42841;DHT22;28491;46.898;7.660;2023-09-12T01:08:03;18.50;99.90
42841;DHT22;28491;46.898;7.660;2023-09-12T01:10:28;18.40;99.90
42841;DHT22;28491;46.898;7.660;2023-09-12T01:12:54;18.40;99.90
42841;DHT22;28491;46.898;7.660;2023-09-12T01:15:20;18.50;1.00
42841;DHT22;28491;46.898;7.660;2023-09-12T01:17:46;18.40;99.90
42841;DHT22;28491;46.898;7.660;2023-09-12T01:20:17;18.40;99.90
42841;DHT22;28491;46.898;7.660;2023-09-12T01:28:09;18.30;99.90
42841;DHT22;28491;46.898;7.660;2023-09-12T01:30:36;18.30;1.00
42841;DHT22;28491;46.898;7.660;2023-09-12T01:33:04;18.30;99.40
42841;DHT22;28491;46.898;7.660;2023-09-12T01:35:30;18.40;99.90
42841;DHT22;28491;46.898;7.660;2023-09-12T01:37:55;18.40;99.90
42841;DHT22;28491;46.898;7.660;2023-09-12T01:40:28;18.40;99.90
42841;DHT22;28491;46.898;7.660;2023-09-12T01:42:55;18.30;99.90
42841;DHT22;28491;46.898;7.660;2023-09-12T01:45:21;18.30;99.90
42841;DHT22;28491;46.898;7.660;2023-09-12T01:47:47;18.30;99.90
42841;DHT22;28491;46.898;7.660;2023-09-12T01:50:16;18.30;99.90
42841;DHT22;28491;46.898;7.660;2023-09-12T01:52:42;18.20;99.90
42841;DHT22;28491;46.898;7.660;2023-09-12T01:55:08;18.10;1.00
42841;DHT22;28491;46.898;7.660;2023-09-12T01:57:37;18.10;99.90
42841;DHT22;28491;46.898;7.660;2023-09-12T02:00:03;18.10;1.00
42841;DHT22;28491;46.898;7.660;2023-09-12T02:02:29;18.10;1.00
42841;DHT22;28491;46.898;7.660;2023-09-12T02:05:11;18.00;1.00
42841;DHT22;28491;46.898;7.660;2023-09-12T02:07:40;18.10;1.00
42841;DHT22;28491;46.898;7.660;2023-09-12T02:10:06;18.10;1.00
42841;DHT22;28491;46.898;7.660;2023-09-12T02:12:32;18.20;1.00
42841;DHT22;28491;46.898;7.660;2023-09-12T02:14:58;18.20;1.00
42841;DHT22;28491;46.898;7.660;2023-09-12T02:17:23;18.20;1.00
42841;DHT22;28491;46.898;7.660;2023-09-12T02:19:49;18.10;1.00
42841;DHT22;28491;46.898;7.660;2023-09-12T02:22:14;18.00;1.00
42841;DHT22;28491;46.898;7.660;2023-09-12T02:24:40;17.90;1.00
42841;DHT22;28491;46.898;7.660;2023-09-12T02:27:05;17.90;1.00
42841;DHT22;28491;46.898;7.660;2023-09-12T02:29:31;17.90;1.00
42841;DHT22;28491;46.898;7.660;2023-09-12T02:31:58;17.90;1.00
42841;DHT22;28491;46.898;7.660;2023-09-12T02:34:24;17.90;1.00
42841;DHT22;28491;46.898;7.660;2023-09-12T02:36:49;17.90;1.00
42841;DHT22;28491;46.898;7.660;2023-09-12T02:39:15;17.90;1.00
42841;DHT22;28491;46.898;7.660;2023-09-12T02:41:41;17.80;1.00
42841;DHT22;28491;46.898;7.660;2023-09-12T02:44:06;17.80;1.00
42841;DHT22;28491;46.898;7.660;2023-09-12T02:46:32;17.90;1.00
42841;DHT22;28491;46.898;7.660;2023-09-12T02:48:58;17.90;1.00
42841;DHT22;28491;46.898;7.660;2023-09-12T02:51:25;18.00;1.00
42841;DHT22;28491;46.898;7.660;2023-09-12T02:53:51;18.10;1.00
42841;DHT22;28491;46.898;7.660;2023-09-12T02:56:16;18.10;1.00
42841;DHT22;28491;46.898;7.660;2023-09-12T02:58:45;18.00;1.00
42841;DHT22;28491;46.898;7.660;2023-09-12T03:01:17;18.10;1.00
42841;DHT22;28491;46.898;7.660;2023-09-12T03:03:45;18.00;1.00
42841;DHT22;28491;46.898;7.660;2023-09-12T03:06:13;17.90;1.00
42841;DHT22;28491;46.898;7.660;2023-09-12T03:08:40;17.90;1.00
42841;DHT22;28491;46.898;7.660;2023-09-12T03:11:05;17.70;1.00
42841;DHT22;28491;46.898;7.660;2023-09-12T03:13:33;17.80;1.00
42841;DHT22;28491;46.898;7.660;2023-09-12T03:15:58;17.70;1.00
42841;DHT22;28491;46.898;7.660;2023-09-12T03:18:24;17.80;1.00
42841;DHT22;28491;46.898;7.660;2023-09-12T03:20:49;17.80;1.00
42841;DHT22;28491;46.898;7.660;2023-09-12T03:23:15;17.60;1.00
42841;DHT22;28491;46.898;7.660;2023-09-12T03:25:40;17.50;1.00
42841;DHT22;28491;46.898;7.660;2023-09-12T03:28:07;17.70;1.00
42841;DHT22;28491;46.898;7.660;2023-09-12T03:30:34;17.70;1.00
42841;DHT22;28491;46.898;7.660;2023-09-12T03:32:59;17.70;1.00
42841;DHT22;28491;46.898;7.660;2023-09-12T03:35:25;17.70;1.00
42841;DHT22;28491;46.898;7.660;2023-09-12T03:37:51;17.80;1.00
42841;DHT22;28491;46.898;7.660;2023-09-12T03:40:16;17.70;99.90
42841;DHT22;28491;46.898;7.660;2023-09-12T03:42:42;17.70;99.90
42841;DHT22;28491;46.898;7.660;2023-09-12T03:45:08;17.70;99.90
42841;DHT22;28491;46.898;7.660;2023-09-12T03:47:33;17.70;1.00
42841;DHT22;28491;46.898;7.660;2023-09-12T03:49:59;17.70;1.00
42841;DHT22;28491;46.898;7.660;2023-09-12T03:52:25;17.70;99.90
42841;DHT22;28491;46.898;7.660;2023-09-12T03:54:50;17.60;99.90
42841;DHT22;28491;46.898;7.660;2023-09-12T03:57:16;17.50;1.00
42841;DHT22;28491;46.898;7.660;2023-09-12T03:59:41;17.50;1.00
42841;DHT22;28491;46.898;7.660;2023-09-12T04:02:08;17.50;1.00
42841;DHT22;28491;46.898;7.660;2023-09-12T04:04:33;17.50;1.00
42841;DHT22;28491;46.898;7.660;2023-09-12T04:06:59;17.50;1.00
42841;DHT22;28491;46.898;7.660;2023-09-12T04:09:25;17.40;1.00
42841;DHT22;28491;46.898;7.660;2023-09-12T04:11:50;17.50;1.00
42841;DHT22;28491;46.898;7.660;2023-09-12T04:14:16;17.40;1.00
42841;DHT22;28491;46.898;7.660;2023-09-12T04:16:41;17.40;1.00
42841;DHT22;28491;46.898;7.660;2023-09-12T04:19:07;17.40;1.00
42841;DHT22;28491;46.898;7.660;2023-09-12T04:21:32;17.40;1.00
42841;DHT22;28491;46.898;7.660;2023-09-12T04:23:58;17.40;1.00
42841;DHT22;28491;46.898;7.660;2023-09-12T04:26:24;17.40;1.00
42841;DHT22;28491;46.898;7.660;2023-09-12T04:28:49;17.40;1.00
42841;DHT22;28491;46.898;7.660;2023-09-12T04:31:15;17.50;1.00
42841;DHT22;28491;46.898;7.660;2023-09-12T04:33:41;17.60;1.00
42841;DHT22;28491;46.898;7.660;2023-09-12T04:36:06;17.60;1.00
42841;DHT22;28491;46.898;7.660;2023-09-12T04:38:32;17.50;1.00
42841;DHT22;28491;46.898;7.660;2023-09-12T04:41:00;17.50;1.00
42841;DHT22;28491;46.898;7.660;2023-09-12T04:43:30;17.40;1.00
42841;DHT22;28491;46.898;7.660;2023-09-12T04:45:56;17.50;1.00
42841;DHT22;28491;46.898;7.660;2023-09-12T04:48:21;17.40;1.00
42841;DHT22;28491;46.898;7.660;2023-09-12T04:50:47;17.40;1.00
42841;DHT22;28491;46.898;7.660;2023-09-12T04:53:13;17.50;1.00
42841;DHT22;28491;46.898;7.660;2023-09-12T04:55:39;17.40;1.00
42841;DHT22;28491;46.898;7.660;2023-09-12T04:58:05;17.40;1.00
42841;DHT22;28491;46.898;7.660;2023-09-12T05:00:31;17.30;1.00
42841;DHT22;28491;46.898;7.660;2023-09-12T05:02:57;17.40;1.00
42841;DHT22;28491;46.898;7.660;2023-09-12T05:05:23;17.40;1.00
42841;DHT22;28491;46.898;7.660;2023-09-12T05:07:48;17.60;1.00
42841;DHT22;28491;46.898;7.660;2023-09-12T05:10:14;17.50;1.00
42841;DHT22;28491;46.898;7.660;2023-09-12T05:12:39;17.50;1.00
42841;DHT22;28491;46.898;7.660;2023-09-12T05:15:05;17.60;1.00
42841;DHT22;28491;46.898;7.660;2023-09-12T05:17:31;17.60;1.00
42841;DHT22;28491;46.898;7.660;2023-09-12T05:19:56;17.60;1.00
42841;DHT22;28491;46.898;7.660;2023-09-12T05:22:22;17.50;1.00
42841;DHT22;28491;46.898;7.660;2023-09-12T05:24:47;17.50;1.00
42841;DHT22;28491;46.898;7.660;2023-09-12T05:27:13;17.40;1.00
42841;DHT22;28491;46.898;7.660;2023-09-12T05:29:39;17.40;1.00
42841;DHT22;28491;46.898;7.660;2023-09-12T05:32:05;17.50;1.00
42841;DHT22;28491;46.898;7.660;2023-09-12T05:34:30;17.50;1.00
42841;DHT22;28491;46.898;7.660;2023-09-12T05:36:57;17.50;1.00
42841;DHT22;28491;46.898;7.660;2023-09-12T05:39:22;17.50;1.00
42841;DHT22;28491;46.898;7.660;2023-09-12T05:41:49;17.50;1.00
42841;DHT22;28491;46.898;7.660;2023-09-12T05:44:14;17.50;1.00
42841;DHT22;28491;46.898;7.660;2023-09-12T05:46:47;17.40;1.00
42841;DHT22;28491;46.898;7.660;2023-09-12T05:49:14;17.40;1.00
42841;DHT22;28491;46.898;7.660;2023-09-12T05:51:40;17.50;1.00
42841;DHT22;28491;46.898;7.660;2023-09-12T05:54:06;17.50;1.00
42841;DHT22;28491;46.898;7.660;2023-09-12T05:56:31;17.40;1.00
42841;DHT22;28491;46.898;7.660;2023-09-12T05:58:57;17.40;1.00
42841;DHT22;28491;46.898;7.660;2023-09-12T06:01:22;17.40;1.00
42841;DHT22;28491;46.898;7.660;2023-09-12T06:03:48;17.40;1.00
42841;DHT22;28491;46.898;7.660;2023-09-12T06:06:14;17.40;1.00
42841;DHT22;28491;46.898;7.660;2023-09-12T06:08:39;17.40;1.00
42841;DHT22;28491;46.898;7.660;2023-09-12T06:11:05;17.50;1.00
42841;DHT22;28491;46.898;7.660;2023-09-12T06:13:31;17.60;1.00
42841;DHT22;28491;46.898;7.660;2023-09-12T06:15:58;17.60;1.00
42841;DHT22;28491;46.898;7.660;2023-09-12T06:18:23;17.70;1.00
42841;DHT22;28491;46.898;7.660;2023-09-12T06:20:50;17.70;1.00
42841;DHT22;28491;46.898;7.660;2023-09-12T06:23:15;17.80;1.00
42841;DHT22;28491;46.898;7.660;2023-09-12T06:25:41;17.80;1.00
42841;DHT22;28491;46.898;7.660;2023-09-12T06:28:09;17.80;1.00
42841;DHT22;28491;46.898;7.660;2023-09-12T06:30:38;17.80;1.00
42841;DHT22;28491;46.898;7.660;2023-09-12T06:33:05;17.90;1.00
42841;DHT22;28491;46.898;7.660;2023-09-12T06:35:32;17.90;1.00
42841;DHT22;28491;46.898;7.660;2023-09-12T06:37:57;17.90;1.00
42841;DHT22;28491;46.898;7.660;2023-09-12T06:40:22;17.90;1.00
42841;DHT22;28491;46.898;7.660;2023-09-12T06:42:48;17.90;1.00
42841;DHT22;28491;46.898;7.660;2023-09-12T06:45:14;17.90;1.00
42841;DHT22;28491;46.898;7.660;2023-09-12T06:47:39;18.00;1.00
42841;DHT22;28491;46.898;7.660;2023-09-12T06:50:05;17.90;1.00
42841;DHT22;28491;46.898;7.660;2023-09-12T06:52:30;18.00;1.00
42841;DHT22;28491;46.898;7.660;2023-09-12T06:54:56;18.00;1.00
42841;DHT22;28491;46.898;7.660;2023-09-12T06:57:21;18.00;1.00
42841;DHT22;28491;46.898;7.660;2023-09-12T06:59:47;18.00;1.00
42841;DHT22;28491;46.898;7.660;2023-09-12T07:02:14;18.00;1.00
42841;DHT22;28491;46.898;7.660;2023-09-12T07:04:40;18.10;1.00
42841;DHT22;28491;46.898;7.660;2023-09-12T07:07:05;18.10;1.00
42841;DHT22;28491;46.898;7.660;2023-09-12T07:09:31;18.10;1.00
42841;DHT22;28491;46.898;7.660;2023-09-12T07:11:56;18.20;1.00
42841;DHT22;28491;46.898;7.660;2023-09-12T07:14:22;18.20;1.00
42841;DHT22;28491;46.898;7.660;2023-09-12T07:16:49;18.30;1.00
42841;DHT22;28491;46.898;7.660;2023-09-12T07:19:14;18.50;1.00
42841;DHT22;28491;46.898;7.660;2023-09-12T07:21:40;18.40;1.00
42841;DHT22;28491;46.898;7.660;2023-09-12T07:24:06;18.40;1.00
42841;DHT22;28491;46.898;7.660;2023-09-12T07:26:32;18.50;1.00
42841;DHT22;28491;46.898;7.660;2023-09-12T07:28:57;18.60;1.00
42841;DHT22;28491;46.898;7.660;2023-09-12T07:31:23;18.60;1.00
42841;DHT22;28491;46.898;7.660;2023-09-12T07:33:49;18.70;1.00
42841;DHT22;28491;46.898;7.660;2023-09-12T07:36:14;18.70;1.00
42841;DHT22;28491;46.898;7.660;2023-09-12T07:38:40;18.80;1.00
42841;DHT22;28491;46.898;7.660;2023-09-12T07:41:07;18.80;1.00
42841;DHT22;28491;46.898;7.660;2023-09-12T07:43:32;18.90;1.00
42841;DHT22;28491;46.898;7.660;2023-09-12T07:45:58;19.00;1.00
42841;DHT22;28491;46.898;7.660;2023-09-12T07:48:24;19.00;1.00
42841;DHT22;28491;46.898;7.660;2023-09-12T07:50:50;19.10;1.00
42841;DHT22;28491;46.898;7.660;2023-09-12T07:53:17;19.10;1.00
42841;DHT22;28491;46.898;7.660;2023-09-12T07:55:43;19.10;1.00
42841;DHT22;28491;46.898;7.660;2023-09-12T07:58:15;19.30;1.00
42841;DHT22;28491;46.898;7.660;2023-09-12T08:00:41;19.30;1.00
42841;DHT22;28491;46.898;7.660;2023-09-12T08:03:08;19.30;1.00
42841;DHT22;28491;46.898;7.660;2023-09-12T08:05:34;19.40;1.00
42841;DHT22;28491;46.898;7.660;2023-09-12T08:08:00;19.40;1.00
42841;DHT22;28491;46.898;7.660;2023-09-12T08:10:26;19.50;1.00
42841;DHT22;28491;46.898;7.660;2023-09-12T08:12:51;19.60;1.00
42841;DHT22;28491;46.898;7.660;2023-09-12T08:15:17;19.60;1.00
42841;DHT22;28491;46.898;7.660;2023-09-12T08:17:43;19.70;1.00
42841;DHT22;28491;46.898;7.660;2023-09-12T08:20:09;19.80;1.00
42841;DHT22;28491;46.898;7.660;2023-09-12T08:22:38;19.80;1.00
42841;DHT22;28491;46.898;7.660;2023-09-12T08:25:05;19.90;1.00
42841;DHT22;28491;46.898;7.660;2023-09-12T08:27:31;19.90;1.00
42841;DHT22;28491;46.898;7.660;2023-09-12T08:29:56;19.90;99.90
42841;DHT22;28491;46.898;7.660;2023-09-12T08:32:22;19.90;99.90
42841;DHT22;28491;46.898;7.660;2023-09-12T08:34:47;19.90;99.90
42841;DHT22;28491;46.898;7.660;2023-09-12T08:37:13;20.00;99.90
42841;DHT22;28491;46.898;7.660;2023-09-12T08:39:44;20.10;99.90
42841;DHT22;28491;46.898;7.660;2023-09-12T08:42:13;20.00;99.90
42841;DHT22;28491;46.898;7.660;2023-09-12T08:44:39;20.00;1.00
42841;DHT22;28491;46.898;7.660;2023-09-12T08:47:08;20.00;1.00
42841;DHT22;28491;46.898;7.660;2023-09-12T08:49:35;20.00;1.00
42841;DHT22;28491;46.898;7.660;2023-09-12T08:52:01;20.10;99.90
42841;DHT22;28491;46.898;7.660;2023-09-12T08:54:26;20.20;99.60
42841;DHT22;28491;46.898;7.660;2023-09-12T08:59:52;20.10;95.30
42841;DHT22;28491;46.898;7.660;2023-09-12T09:02:18;20.20;95.10
42841;DHT22;28491;46.898;7.660;2023-09-12T09:04:46;20.20;97.20
42841;DHT22;28491;46.898;7.660;2023-09-12T09:07:12;20.20;95.00
42841;DHT22;28491;46.898;7.660;2023-09-12T09:09:39;20.20;92.70
42841;DHT22;28491;46.898;7.660;2023-09-12T09:12:08;20.30;92.00
42841;DHT22;28491;46.898;7.660;2023-09-12T09:14:35;20.40;80.70
42841;DHT22;28491;46.898;7.660;2023-09-12T09:17:01;20.40;70.10
42841;DHT22;28491;46.898;7.660;2023-09-12T09:19:43;20.50;71.20
42841;DHT22;28491;46.898;7.660;2023-09-12T09:22:10;20.50;60.10
42841;DHT22;28491;46.898;7.660;2023-09-12T09:24:35;20.60;61.60
42841;DHT22;28491;46.898;7.660;2023-09-12T09:27:01;20.80;62.70
42841;DHT22;28491;46.898;7.660;2023-09-12T09:29:27;20.80;43.30
42841;DHT22;28491;46.898;7.660;2023-09-12T09:32:02;20.80;26.30
42841;DHT22;28491;46.898;7.660;2023-09-12T09:34:30;20.80;1.00
42841;DHT22;28491;46.898;7.660;2023-09-12T09:36:58;20.90;19.50
42841;DHT22;28491;46.898;7.660;2023-09-12T09:39:25;20.90;39.60
42841;DHT22;28491;46.898;7.660;2023-09-12T09:41:53;21.00;1.00
42841;DHT22;28491;46.898;7.660;2023-09-12T09:44:21;21.20;7.00
42841;DHT22;28491;46.898;7.660;2023-09-12T09:46:50;21.20;25.30
42841;DHT22;28491;46.898;7.660;2023-09-12T09:49:19;21.20;1.00
42841;DHT22;28491;46.898;7.660;2023-09-12T09:51:46;21.20;1.00
42841;DHT22;28491;46.898;7.660;2023-09-12T09:54:12;21.20;1.00
42841;DHT22;28491;46.898;7.660;2023-09-12T09:56:46;21.20;1.00
42841;DHT22;28491;46.898;7.660;2023-09-12T09:59:15;21.20;19.70
42841;DHT22;28491;46.898;7.660;2023-09-12T10:01:41;21.30;47.40
42841;DHT22;28491;46.898;7.660;2023-09-12T10:04:08;21.30;34.30
42841;DHT22;28491;46.898;7.660;2023-09-12T10:06:37;21.30;1.00
42841;DHT22;28491;46.898;7.660;2023-09-12T10:09:07;21.40;1.00
42841;DHT22;28491;46.898;7.660;2023-09-12T10:11:35;21.30;3.80
42841;DHT22;28491;46.898;7.660;2023-09-12T10:14:03;21.30;36.00
42841;DHT22;28491;46.898;7.660;2023-09-12T10:16:44;21.40;62.30
42841;DHT22;28491;46.898;7.660;2023-09-12T10:24:44;21.70;67.40
42841;DHT22;28491;46.898;7.660;2023-09-12T10:27:12;21.80;29.90
42841;DHT22;28491;46.898;7.660;2023-09-12T10:29:38;21.90;1.00
42841;DHT22;28491;46.898;7.660;2023-09-12T10:32:05;22.10;1.00
42841;DHT22;28491;46.898;7.660;2023-09-12T10:34:32;22.10;4.00
42841;DHT22;28491;46.898;7.660;2023-09-12T10:36:59;22.10;15.40
42841;DHT22;28491;46.898;7.660;2023-09-12T10:39:31;22.10;34.50
42841;DHT22;28491;46.898;7.660;2023-09-12T10:41:58;22.10;67.10
42841;DHT22;28491;46.898;7.660;2023-09-12T10:44:24;22.20;67.10
42841;DHT22;28491;46.898;7.660;2023-09-12T10:47:15;22.20;72.10
42841;DHT22;28491;46.898;7.660;2023-09-12T10:49:43;22.20;67.80
42841;DHT22;28491;46.898;7.660;2023-09-12T10:52:09;22.20;65.70
42841;DHT22;28491;46.898;7.660;2023-09-12T10:54:37;22.20;65.30
42841;DHT22;28491;46.898;7.660;2023-09-12T10:57:04;22.10;55.20
42841;DHT22;28491;46.898;7.660;2023-09-12T10:59:30;22.10;65.50
42841;DHT22;28491;46.898;7.660;2023-09-12T11:02:31;22.10;1.00
42841;DHT22;28491;46.898;7.660;2023-09-12T11:04:57;22.20;19.60
42841;DHT22;28491;46.898;7.660;2023-09-12T11:07:50;22.20;62.00
42841;DHT22;28491;46.898;7.660;2023-09-12T11:10:16;22.30;11.40
42841;DHT22;28491;46.898;7.660;2023-09-12T11:12:45;22.30;1.00
42841;DHT22;28491;46.898;7.660;2023-09-12T11:15:10;22.50;1.00
42841;DHT22;28491;46.898;7.660;2023-09-12T11:17:47;22.40;99.90
42841;DHT22;28491;46.898;7.660;2023-09-12T11:20:14;22.50;1.00
42841;DHT22;28491;46.898;7.660;2023-09-12T11:22:47;22.50;1.00
42841;DHT22;28491;46.898;7.660;2023-09-12T11:25:20;22.60;99.90
42841;DHT22;28491;46.898;7.660;2023-09-12T11:30:22;22.60;99.90
42841;DHT22;28491;46.898;7.660;2023-09-12T11:32:52;22.60;1.00
42841;DHT22;28491;46.898;7.660;2023-09-12T11:35:28;22.60;1.00
42841;DHT22;28491;46.898;7.660;2023-09-12T11:37:59;22.60;1.00
42841;DHT22;28491;46.898;7.660;2023-09-12T11:40:27;22.60;99.90
42841;DHT22;28491;46.898;7.660;2023-09-12T11:43:06;22.60;1.00
42841;DHT22;28491;46.898;7.660;2023-09-12T11:45:32;22.70;1.00
42841;DHT22;28491;46.898;7.660;2023-09-12T11:47:58;22.80;99.90
42841;DHT22;28491;46.898;7.660;2023-09-12T11:50:34;22.80;95.50
42841;DHT22;28491;46.898;7.660;2023-09-12T11:53:07;22.90;95.50
42841;DHT22;28491;46.898;7.660;2023-09-12T11:55:41;23.00;99.90
42841;DHT22;28491;46.898;7.660;2023-09-12T11:58:07;23.00;92.20
42841;DHT22;28491;46.898;7.660;2023-09-12T12:00:33;23.00;97.60
42841;DHT22;28491;46.898;7.660;2023-09-12T12:02:59;23.00;97.10
42841;DHT22;28491;46.898;7.660;2023-09-12T12:05:24;23.00;95.80
42841;DHT22;28491;46.898;7.660;2023-09-12T12:07:50;23.00;97.00
42841;DHT22;28491;46.898;7.660;2023-09-12T12:10:17;22.90;82.00
42841;DHT22;28491;46.898;7.660;2023-09-12T12:12:46;23.10;83.20
42841;DHT22;28491;46.898;7.660;2023-09-12T12:15:11;23.00;64.70
42841;DHT22;28491;46.898;7.660;2023-09-12T12:17:38;23.10;70.50
42841;DHT22;28491;46.898;7.660;2023-09-12T12:20:10;23.20;64.70
42841;DHT22;28491;46.898;7.660;2023-09-12T12:22:37;23.20;61.00
42841;DHT22;28491;46.898;7.660;2023-09-12T12:25:08;23.30;62.50
42841;DHT22;28491;46.898;7.660;2023-09-12T12:27:38;23.30;63.20
42841;DHT22;28491;46.898;7.660;2023-09-12T12:30:09;23.30;77.00
42841;DHT22;28491;46.898;7.660;2023-09-12T12:32:42;23.40;62.20
42841;DHT22;28491;46.898;7.660;2023-09-12T12:35:17;23.30;1.00
42841;DHT22;28491;46.898;7.660;2023-09-12T12:37:43;23.40;1.00
42841;DHT22;28491;46.898;7.660;2023-09-12T12:40:12;23.40;1.00
42841;DHT22;28491;46.898;7.660;2023-09-12T12:42:38;23.40;30.10
42841;DHT22;28491;46.898;7.660;2023-09-12T12:45:18;23.30;24.60
42841;DHT22;28491;46.898;7.660;2023-09-12T12:47:44;23.40;60.00
42841;DHT22;28491;46.898;7.660;2023-09-12T12:50:11;23.40;20.60
42841;DHT22;28491;46.898;7.660;2023-09-12T12:52:40;23.40;34.70
42841;DHT22;28491;46.898;7.660;2023-09-12T12:55:10;23.40;1.00
42841;DHT22;28491;46.898;7.660;2023-09-12T12:57:41;23.50;1.00
42841;DHT22;28491;46.898;7.660;2023-09-12T13:00:13;23.50;1.00
42841;DHT22;28491;46.898;7.660;2023-09-12T13:02:39;23.60;1.00
42841;DHT22;28491;46.898;7.660;2023-09-12T13:05:18;23.50;1.00
42841;DHT22;28491;46.898;7.660;2023-09-12T13:07:44;23.50;51.90
42841;DHT22;28491;46.898;7.660;2023-09-12T13:10:10;23.40;57.50
42841;DHT22;28491;46.898;7.660;2023-09-12T13:12:35;23.30;1.00
42841;DHT22;28491;46.898;7.660;2023-09-12T13:15:01;23.30;1.00
42841;DHT22;28491;46.898;7.660;2023-09-12T13:17:27;23.30;7.00
42841;DHT22;28491;46.898;7.660;2023-09-12T13:19:52;23.30;1.00
42841;DHT22;28491;46.898;7.660;2023-09-12T13:22:24;23.40;1.00
42841;DHT22;28491;46.898;7.660;2023-09-12T13:25:10;23.50;36.80
42841;DHT22;28491;46.898;7.660;2023-09-12T13:27:49;23.70;1.00
42841;DHT22;28491;46.898;7.660;2023-09-12T13:30:15;23.70;1.00
42841;DHT22;28491;46.898;7.660;2023-09-12T13:32:40;23.80;1.00
42841;DHT22;28491;46.898;7.660;2023-09-12T13:35:06;23.90;99.90
42841;DHT22;28491;46.898;7.660;2023-09-12T13:37:33;24.00;1.00
42841;DHT22;28491;46.898;7.660;2023-09-12T13:39:58;24.00;1.00
42841;DHT22;28491;46.898;7.660;2023-09-12T13:42:24;24.00;1.00
42841;DHT22;28491;46.898;7.660;2023-09-12T13:44:53;24.00;1.00
42841;DHT22;28491;46.898;7.660;2023-09-12T13:47:19;24.00;1.00
42841;DHT22;28491;46.898;7.660;2023-09-12T13:49:48;24.10;1.00
42841;DHT22;28491;46.898;7.660;2023-09-12T13:52:14;24.20;1.00
42841;DHT22;28491;46.898;7.660;2023-09-12T13:54:40;24.30;99.90
42841;DHT22;28491;46.898;7.660;2023-09-12T13:57:06;24.50;99.90
42841;DHT22;28491;46.898;7.660;2023-09-12T13:59:31;24.50;99.90
42841;DHT22;28491;46.898;7.660;2023-09-12T14:01:57;24.60;99.90
42841;DHT22;28491;46.898;7.660;2023-09-12T14:04:22;24.60;99.90
42841;DHT22;28491;46.898;7.660;2023-09-12T14:06:48;24.50;99.90
42841;DHT22;28491;46.898;7.660;2023-09-12T14:09:14;24.50;99.90
42841;DHT22;28491;46.898;7.660;2023-09-12T14:11:41;24.40;99.50
42841;DHT22;28491;46.898;7.660;2023-09-12T14:14:06;24.50;99.90
42841;DHT22;28491;46.898;7.660;2023-09-12T14:16:32;24.50;99.80
42841;DHT22;28491;46.898;7.660;2023-09-12T14:21:59;24.50;98.00
42841;DHT22;28491;46.898;7.660;2023-09-12T14:28:08;24.40;95.90
42841;DHT22;28491;46.898;7.660;2023-09-12T14:31:09;24.30;96.10
42841;DHT22;28491;46.898;7.660;2023-09-12T14:33:41;24.20;96.30
42841;DHT22;28491;46.898;7.660;2023-09-12T14:36:08;24.10;96.80
42841;DHT22;28491;46.898;7.660;2023-09-12T14:38:34;24.00;97.70
42841;DHT22;28491;46.898;7.660;2023-09-12T14:41:03;24.00;97.20
42841;DHT22;28491;46.898;7.660;2023-09-12T14:43:29;23.90;97.90
42841;DHT22;28491;46.898;7.660;2023-09-12T14:46:06;23.90;96.90
42841;DHT22;28491;46.898;7.660;2023-09-12T14:48:37;23.90;97.00
42841;DHT22;28491;46.898;7.660;2023-09-12T14:51:03;23.90;96.40
42841;DHT22;28491;46.898;7.660;2023-09-12T14:53:29;23.70;97.50
42841;DHT22;28491;46.898;7.660;2023-09-12T14:55:54;23.70;96.90
42841;DHT22;28491;46.898;7.660;2023-09-12T14:58:20;23.60;97.90
42841;DHT22;28491;46.898;7.660;2023-09-12T15:00:49;23.60;97.70
42841;DHT22;28491;46.898;7.660;2023-09-12T15:03:15;23.60;98.10
42841;DHT22;28491;46.898;7.660;2023-09-12T15:05:40;23.60;95.60
42841;DHT22;28491;46.898;7.660;2023-09-12T15:08:06;23.60;96.70
42841;DHT22;28491;46.898;7.660;2023-09-12T15:10:32;23.60;96.30
42841;DHT22;28491;46.898;7.660;2023-09-12T15:12:57;23.50;92.00
42841;DHT22;28491;46.898;7.660;2023-09-12T15:15:23;23.50;91.40
42841;DHT22;28491;46.898;7.660;2023-09-12T15:17:48;23.50;91.10
42841;DHT22;28491;46.898;7.660;2023-09-12T15:20:14;23.60;92.50
42841;DHT22;28491;46.898;7.660;2023-09-12T15:22:40;23.60;90.50
42841;DHT22;28491;46.898;7.660;2023-09-12T15:25:09;23.60;91.60
42841;DHT22;28491;46.898;7.660;2023-09-12T15:27:34;23.80;90.30
42841;DHT22;28491;46.898;7.660;2023-09-12T15:30:01;23.90;87.90
42841;DHT22;28491;46.898;7.660;2023-09-12T15:32:29;23.90;87.80
42841;DHT22;28491;46.898;7.660;2023-09-12T15:34:57;23.80;87.40
42841;DHT22;28491;46.898;7.660;2023-09-12T15:37:23;23.80;87.80
42841;DHT22;28491;46.898;7.660;2023-09-12T15:39:50;23.80;87.10
42841;DHT22;28491;46.898;7.660;2023-09-12T15:42:16;24.00;91.60
42841;DHT22;28491;46.898;7.660;2023-09-12T15:44:42;24.20;90.60
42841;DHT22;28491;46.898;7.660;2023-09-12T15:47:11;24.30;92.00
42841;DHT22;28491;46.898;7.660;2023-09-12T15:49:36;24.40;91.90
42841;DHT22;28491;46.898;7.660;2023-09-12T15:52:03;24.50;91.90
42841;DHT22;28491;46.898;7.660;2023-09-12T15:54:29;24.50;91.80
42841;DHT22;28491;46.898;7.660;2023-09-12T15:56:55;24.60;91.70
42841;DHT22;28491;46.898;7.660;2023-09-12T15:59:21;24.50;92.10
42841;DHT22;28491;46.898;7.660;2023-09-12T16:01:47;24.70;91.80
42841;DHT22;28491;46.898;7.660;2023-09-12T16:04:12;24.80;91.00